北海道・東北TAF電文


新千歳(RJCC)
4/19 2h
TAF RJCC 181714Z 1818/2000 35009KT 9999 FEW003 BKN015 TEMPO
1818/1900 2000 BR FEW001 BKN003 BECMG 1902/1904 35020KT
TEMPO 1909/1921 FEW005 BKN008 BECMG 1912/1915 34023G33KT=

旭川(RJEC)
4/19 2h
TAF RJEC 181714Z 1818/2000 34005KT 9999 FEW008 BKN015 TEMPO
1818/1900 1500 -SHRA BR FEW002 BKN004 TEMPO 1912/2000 2000
-SHRA BR FEW003 BKN005=

帯広(RJCB)
4/19 2h
TAF RJCB 181714Z 1818/2000 35007KT 9999 FEW008 BKN015 TEMPO
1818/1900 0700 FG VV001 TEMPO 1900/1909 FEW005 BKN008 TEMPO
1909/1918 2000 -SHRA BR FEW002 BKN004 BECMG 1918/1921
33020KT TEMPO 1918/2000 33025G35KT=

釧路(RJCK)
4/19 2h
TAF RJCK 181706Z 1818/2000 02008KT 9999 FEW006 BKN015 TEMPO
1818/1903 3000 -SHRA BR FEW003 BKN006 TEMPO 1909/1921
FEW005 BKN008 BECMG 1921/2000 35018KT=

女満別(RJCM)
4/19 2h
TAF RJCM 181706Z 1818/2000 01008KT 9999 FEW005 BKN008 TEMPO
1818/1821 1500 -SHRA BR FEW001 BKN003 TEMPO 1912/2000 3000
-SHRA BR FEW003 BKN005=

函館(RJCH)
4/19 2h
TAF RJCH 181706Z 1818/2000 02004KT 9999 FEW008 BKN015 BECMG
1820/1822 23005KT TEMPO 1820/1900 3000 BR FEW003 BKN005
BECMG 1904/1906 30010KT=

青森(RJSA)
4/19 2h
TAF RJSA 181705Z 1818/2000 26008KT 9999 FEW008 BKN012 TEMPO
1818/1900 3000 BR FEW002 BKN003 TEMPO 1900/1903 FEW005
BKN008 TEMPO 1906/1915 FEW005 BKN008 TEMPO 1915/1921 3000
BR FEW002 BKN005=

秋田(RJSK)
4/19 2h
TAF RJSK 181705Z 1818/2000 30010KT 9999 FEW008 BKN015 TEMPO
1818/1900 FEW005 BKN008=

花巻(RJSI)
4/19 2h
TAF RJSI 181705Z 1818/2000 34008KT 9999 FEW020 BKN030 TEMPO
1904/1909 29015G28KT=

仙台(RJSS)
4/19 2h
TAF RJSS 181705Z 1818/2000 32006KT 9999 FEW020 BKN040 BECMG
1820/1822 32016KT BECMG 1900/1902 30020G30KT=

福島(RJSF)
4/19 2h
TAF RJSF 181705Z 1818/2000 32016KT 9999 FEW020 BKN030 TEMPO
1900/1909 32022G32KT=
Copyright(c) 2014 International Meteorological & Oceanographic Consultants Co,.Ltd. All Rights Reserved. Design by http://f-tpl.com